sensor_id;sensor_type;location;lat;lon;timestamp;P1;durP1;ratioP1;P2;durP2;ratioP2
21494;SDS011;10909;53.590;10.054;2023-03-31T00:00:50;8.60;;;2.50;;
21494;SDS011;10909;53.590;10.054;2023-03-31T00:03:17;5.13;;;2.10;;
21494;SDS011;10909;53.590;10.054;2023-03-31T00:05:49;7.40;;;2.50;;
21494;SDS011;10909;53.590;10.054;2023-03-31T00:08:22;7.23;;;2.47;;
21494;SDS011;10909;53.590;10.054;2023-03-31T00:10:49;8.20;;;2.37;;
21494;SDS011;10909;53.590;10.054;2023-03-31T00:13:15;9.53;;;2.30;;
21494;SDS011;10909;53.590;10.054;2023-03-31T00:15:41;7.53;;;2.10;;
21494;SDS011;10909;53.590;10.054;2023-03-31T00:18:06;9.67;;;2.23;;
21494;SDS011;10909;53.590;10.054;2023-03-31T00:20:32;10.37;;;2.27;;
21494;SDS011;10909;53.590;10.054;2023-03-31T00:23:01;3.77;;;1.83;;
21494;SDS011;10909;53.590;10.054;2023-03-31T00:25:30;6.80;;;2.13;;
21494;SDS011;10909;53.590;10.054;2023-03-31T00:27:56;8.27;;;2.10;;
21494;SDS011;10909;53.590;10.054;2023-03-31T00:30:22;5.60;;;1.80;;
21494;SDS011;10909;53.590;10.054;2023-03-31T00:32:47;6.47;;;1.93;;
21494;SDS011;10909;53.590;10.054;2023-03-31T00:35:13;8.13;;;2.33;;
21494;SDS011;10909;53.590;10.054;2023-03-31T00:37:39;8.60;;;2.30;;
21494;SDS011;10909;53.590;10.054;2023-03-31T00:40:04;5.53;;;2.20;;
21494;SDS011;10909;53.590;10.054;2023-03-31T00:42:38;7.97;;;2.00;;
21494;SDS011;10909;53.590;10.054;2023-03-31T00:47:43;7.23;;;2.13;;
21494;SDS011;10909;53.590;10.054;2023-03-31T00:50:31;4.07;;;1.90;;
21494;SDS011;10909;53.590;10.054;2023-03-31T00:53:01;7.00;;;2.27;;
21494;SDS011;10909;53.590;10.054;2023-03-31T00:55:36;8.57;;;2.33;;
21494;SDS011;10909;53.590;10.054;2023-03-31T00:58:07;6.60;;;2.07;;
21494;SDS011;10909;53.590;10.054;2023-03-31T01:00:39;7.53;;;2.40;;
21494;SDS011;10909;53.590;10.054;2023-03-31T01:03:06;6.93;;;2.30;;
21494;SDS011;10909;53.590;10.054;2023-03-31T01:05:39;7.90;;;2.13;;
21494;SDS011;10909;53.590;10.054;2023-03-31T01:08:14;7.50;;;2.30;;
21494;SDS011;10909;53.590;10.054;2023-03-31T01:10:44;8.17;;;2.03;;
21494;SDS011;10909;53.590;10.054;2023-03-31T01:13:13;6.67;;;2.03;;
21494;SDS011;10909;53.590;10.054;2023-03-31T01:15:40;7.20;;;2.10;;
21494;SDS011;10909;53.590;10.054;2023-03-31T01:18:06;7.70;;;2.40;;
21494;SDS011;10909;53.590;10.054;2023-03-31T01:29:25;6.13;;;1.83;;
21494;SDS011;10909;53.590;10.054;2023-03-31T01:41:07;5.60;;;1.70;;
21494;SDS011;10909;53.590;10.054;2023-03-31T01:46:36;7.17;;;2.10;;
21494;SDS011;10909;53.590;10.054;2023-03-31T01:49:20;9.00;;;2.70;;
21494;SDS011;10909;53.590;10.054;2023-03-31T01:54:36;4.40;;;1.73;;
21494;SDS011;10909;53.590;10.054;2023-03-31T01:57:13;9.33;;;2.40;;
21494;SDS011;10909;53.590;10.054;2023-03-31T01:59:48;6.10;;;1.90;;
21494;SDS011;10909;53.590;10.054;2023-03-31T02:02:37;6.53;;;2.33;;
21494;SDS011;10909;53.590;10.054;2023-03-31T02:05:11;7.47;;;2.30;;
21494;SDS011;10909;53.590;10.054;2023-03-31T02:07:46;8.90;;;2.40;;
21494;SDS011;10909;53.590;10.054;2023-03-31T02:10:16;5.60;;;2.43;;
21494;SDS011;10909;53.590;10.054;2023-03-31T02:12:43;6.50;;;2.23;;
21494;SDS011;10909;53.590;10.054;2023-03-31T02:15:11;7.00;;;2.10;;
21494;SDS011;10909;53.590;10.054;2023-03-31T02:17:42;7.72;;;2.55;;
21494;SDS011;10909;53.590;10.054;2023-03-31T02:20:11;7.00;;;2.00;;
21494;SDS011;10909;53.590;10.054;2023-03-31T02:22:41;5.90;;;2.00;;
21494;SDS011;10909;53.590;10.054;2023-03-31T02:25:11;6.53;;;2.30;;
21494;SDS011;10909;53.590;10.054;2023-03-31T02:27:41;6.67;;;2.80;;
21494;SDS011;10909;53.590;10.054;2023-03-31T02:30:12;6.90;;;2.40;;
21494;SDS011;10909;53.590;10.054;2023-03-31T02:32:39;6.83;;;2.90;;
21494;SDS011;10909;53.590;10.054;2023-03-31T02:35:11;6.30;;;2.30;;
21494;SDS011;10909;53.590;10.054;2023-03-31T02:37:40;5.47;;;2.27;;
21494;SDS011;10909;53.590;10.054;2023-03-31T02:40:08;4.60;;;2.43;;
21494;SDS011;10909;53.590;10.054;2023-03-31T02:42:39;7.67;;;2.43;;
21494;SDS011;10909;53.590;10.054;2023-03-31T02:45:38;7.00;;;2.60;;
21494;SDS011;10909;53.590;10.054;2023-03-31T02:48:05;5.80;;;2.60;;
21494;SDS011;10909;53.590;10.054;2023-03-31T02:50:37;7.70;;;2.47;;
21494;SDS011;10909;53.590;10.054;2023-03-31T02:58:48;5.63;;;2.40;;
21494;SDS011;10909;53.590;10.054;2023-03-31T03:04:10;6.13;;;2.70;;
21494;SDS011;10909;53.590;10.054;2023-03-31T03:07:08;6.93;;;2.63;;
21494;SDS011;10909;53.590;10.054;2023-03-31T03:12:30;6.57;;;2.57;;
21494;SDS011;10909;53.590;10.054;2023-03-31T03:15:09;7.80;;;2.63;;
21494;SDS011;10909;53.590;10.054;2023-03-31T03:17:43;7.83;;;2.67;;
21494;SDS011;10909;53.590;10.054;2023-03-31T03:20:12;6.17;;;2.60;;
21494;SDS011;10909;53.590;10.054;2023-03-31T03:22:43;3.73;;;2.20;;
21494;SDS011;10909;53.590;10.054;2023-03-31T03:25:10;4.63;;;2.40;;
21494;SDS011;10909;53.590;10.054;2023-03-31T03:27:37;7.23;;;2.80;;
21494;SDS011;10909;53.590;10.054;2023-03-31T03:30:05;4.83;;;2.87;;
21494;SDS011;10909;53.590;10.054;2023-03-31T03:32:32;7.40;;;2.33;;
21494;SDS011;10909;53.590;10.054;2023-03-31T03:35:01;6.70;;;2.73;;
21494;SDS011;10909;53.590;10.054;2023-03-31T03:37:28;6.20;;;2.73;;
21494;SDS011;10909;53.590;10.054;2023-03-31T03:39:55;5.77;;;2.40;;
21494;SDS011;10909;53.590;10.054;2023-03-31T03:42:21;4.20;;;2.40;;
21494;SDS011;10909;53.590;10.054;2023-03-31T03:44:46;5.93;;;2.57;;
21494;SDS011;10909;53.590;10.054;2023-03-31T03:47:12;5.77;;;2.70;;
21494;SDS011;10909;53.590;10.054;2023-03-31T03:49:38;4.73;;;2.50;;
21494;SDS011;10909;53.590;10.054;2023-03-31T03:52:04;4.40;;;2.43;;
21494;SDS011;10909;53.590;10.054;2023-03-31T03:54:30;4.93;;;2.63;;
21494;SDS011;10909;53.590;10.054;2023-03-31T03:56:56;5.43;;;2.30;;
21494;SDS011;10909;53.590;10.054;2023-03-31T03:59:22;6.07;;;2.73;;
21494;SDS011;10909;53.590;10.054;2023-03-31T04:01:48;5.87;;;2.50;;
21494;SDS011;10909;53.590;10.054;2023-03-31T04:04:14;5.23;;;2.80;;
21494;SDS011;10909;53.590;10.054;2023-03-31T04:06:40;6.30;;;2.90;;
21494;SDS011;10909;53.590;10.054;2023-03-31T04:09:06;4.73;;;2.53;;
21494;SDS011;10909;53.590;10.054;2023-03-31T04:11:32;5.70;;;2.30;;
21494;SDS011;10909;53.590;10.054;2023-03-31T04:13:57;6.40;;;2.70;;
21494;SDS011;10909;53.590;10.054;2023-03-31T04:16:23;5.17;;;2.80;;
21494;SDS011;10909;53.590;10.054;2023-03-31T04:18:50;8.03;;;3.20;;
21494;SDS011;10909;53.590;10.054;2023-03-31T04:21:20;6.83;;;2.77;;
21494;SDS011;10909;53.590;10.054;2023-03-31T04:23:47;5.03;;;2.90;;
21494;SDS011;10909;53.590;10.054;2023-03-31T04:26:22;5.40;;;2.50;;
21494;SDS011;10909;53.590;10.054;2023-03-31T04:28:55;7.07;;;3.43;;
21494;SDS011;10909;53.590;10.054;2023-03-31T04:31:24;6.27;;;2.80;;
21494;SDS011;10909;53.590;10.054;2023-03-31T04:33:51;4.07;;;2.83;;
21494;SDS011;10909;53.590;10.054;2023-03-31T04:36:18;4.27;;;2.57;;
21494;SDS011;10909;53.590;10.054;2023-03-31T04:38:44;5.77;;;3.10;;
21494;SDS011;10909;53.590;10.054;2023-03-31T04:41:12;5.90;;;3.10;;
21494;SDS011;10909;53.590;10.054;2023-03-31T04:43:38;6.53;;;3.13;;
21494;SDS011;10909;53.590;10.054;2023-03-31T04:46:04;4.83;;;2.47;;
21494;SDS011;10909;53.590;10.054;2023-03-31T04:48:30;5.37;;;2.73;;
21494;SDS011;10909;53.590;10.054;2023-03-31T04:50:55;5.20;;;3.17;;
21494;SDS011;10909;53.590;10.054;2023-03-31T04:53:21;7.67;;;2.90;;
21494;SDS011;10909;53.590;10.054;2023-03-31T04:55:47;7.37;;;3.30;;
21494;SDS011;10909;53.590;10.054;2023-03-31T04:58:13;5.87;;;3.17;;
21494;SDS011;10909;53.590;10.054;2023-03-31T05:00:40;6.47;;;3.43;;
21494;SDS011;10909;53.590;10.054;2023-03-31T05:03:06;7.43;;;3.43;;
21494;SDS011;10909;53.590;10.054;2023-03-31T05:05:33;8.43;;;3.50;;
21494;SDS011;10909;53.590;10.054;2023-03-31T05:07:59;5.13;;;3.60;;
21494;SDS011;10909;53.590;10.054;2023-03-31T05:10:25;5.70;;;3.93;;
21494;SDS011;10909;53.590;10.054;2023-03-31T05:12:50;5.73;;;3.13;;
21494;SDS011;10909;53.590;10.054;2023-03-31T05:15:16;7.50;;;3.70;;
21494;SDS011;10909;53.590;10.054;2023-03-31T05:17:42;7.07;;;3.80;;
21494;SDS011;10909;53.590;10.054;2023-03-31T05:20:09;5.50;;;3.50;;
21494;SDS011;10909;53.590;10.054;2023-03-31T05:22:36;5.63;;;3.50;;
21494;SDS011;10909;53.590;10.054;2023-03-31T05:25:03;5.77;;;3.23;;
21494;SDS011;10909;53.590;10.054;2023-03-31T05:27:30;7.30;;;3.93;;
21494;SDS011;10909;53.590;10.054;2023-03-31T05:29:56;6.77;;;3.90;;
21494;SDS011;10909;53.590;10.054;2023-03-31T05:32:23;7.23;;;3.57;;
21494;SDS011;10909;53.590;10.054;2023-03-31T05:34:49;7.63;;;4.10;;
21494;SDS011;10909;53.590;10.054;2023-03-31T05:37:17;6.93;;;3.97;;
21494;SDS011;10909;53.590;10.054;2023-03-31T05:39:45;7.40;;;3.73;;
21494;SDS011;10909;53.590;10.054;2023-03-31T05:42:10;6.93;;;4.20;;
21494;SDS011;10909;53.590;10.054;2023-03-31T05:44:36;7.50;;;3.73;;
21494;SDS011;10909;53.590;10.054;2023-03-31T05:47:03;8.33;;;3.80;;
21494;SDS011;10909;53.590;10.054;2023-03-31T05:49:28;7.10;;;3.43;;
21494;SDS011;10909;53.590;10.054;2023-03-31T05:51:54;6.70;;;4.07;;
21494;SDS011;10909;53.590;10.054;2023-03-31T05:54:20;6.83;;;3.70;;
21494;SDS011;10909;53.590;10.054;2023-03-31T05:56:46;8.13;;;3.57;;
21494;SDS011;10909;53.590;10.054;2023-03-31T05:59:12;4.97;;;3.57;;
21494;SDS011;10909;53.590;10.054;2023-03-31T06:01:38;6.50;;;3.60;;
21494;SDS011;10909;53.590;10.054;2023-03-31T06:04:03;6.63;;;3.50;;
21494;SDS011;10909;53.590;10.054;2023-03-31T06:06:29;6.40;;;3.60;;
21494;SDS011;10909;53.590;10.054;2023-03-31T06:08:57;6.97;;;3.70;;
21494;SDS011;10909;53.590;10.054;2023-03-31T06:11:23;6.40;;;3.30;;
21494;SDS011;10909;53.590;10.054;2023-03-31T06:13:49;9.30;;;3.83;;
21494;SDS011;10909;53.590;10.054;2023-03-31T06:16:15;6.30;;;3.27;;
21494;SDS011;10909;53.590;10.054;2023-03-31T06:18:41;6.40;;;3.50;;
21494;SDS011;10909;53.590;10.054;2023-03-31T06:21:09;4.93;;;3.15;;
21494;SDS011;10909;53.590;10.054;2023-03-31T06:23:40;4.90;;;3.13;;
21494;SDS011;10909;53.590;10.054;2023-03-31T06:26:11;7.87;;;3.50;;
21494;SDS011;10909;53.590;10.054;2023-03-31T06:28:38;7.27;;;3.67;;
21494;SDS011;10909;53.590;10.054;2023-03-31T06:31:08;7.33;;;3.23;;
21494;SDS011;10909;53.590;10.054;2023-03-31T06:33:36;12.10;;;3.83;;
21494;SDS011;10909;53.590;10.054;2023-03-31T06:36:02;9.83;;;4.03;;
21494;SDS011;10909;53.590;10.054;2023-03-31T06:38:30;7.67;;;3.80;;
21494;SDS011;10909;53.590;10.054;2023-03-31T06:40:56;8.82;;;5.05;;
21494;SDS011;10909;53.590;10.054;2023-03-31T06:43:21;8.50;;;4.68;;
21494;SDS011;10909;53.590;10.054;2023-03-31T06:45:47;10.45;;;4.57;;
21494;SDS011;10909;53.590;10.054;2023-03-31T06:48:13;8.45;;;4.45;;
21494;SDS011;10909;53.590;10.054;2023-03-31T06:50:39;10.57;;;3.97;;
21494;SDS011;10909;53.590;10.054;2023-03-31T06:53:06;10.30;;;4.38;;
21494;SDS011;10909;53.590;10.054;2023-03-31T06:55:32;6.18;;;3.58;;
21494;SDS011;10909;53.590;10.054;2023-03-31T06:57:59;7.72;;;4.15;;
21494;SDS011;10909;53.590;10.054;2023-03-31T07:00:24;11.40;;;3.83;;
21494;SDS011;10909;53.590;10.054;2023-03-31T07:02:51;6.82;;;3.53;;
21494;SDS011;10909;53.590;10.054;2023-03-31T07:05:17;7.75;;;3.75;;
21494;SDS011;10909;53.590;10.054;2023-03-31T07:07:50;6.72;;;3.30;;
21494;SDS011;10909;53.590;10.054;2023-03-31T07:10:17;8.23;;;3.47;;
21494;SDS011;10909;53.590;10.054;2023-03-31T07:12:42;6.90;;;3.38;;
21494;SDS011;10909;53.590;10.054;2023-03-31T07:15:08;9.77;;;3.72;;
21494;SDS011;10909;53.590;10.054;2023-03-31T07:17:34;5.28;;;3.22;;
21494;SDS011;10909;53.590;10.054;2023-03-31T07:20:01;9.05;;;3.70;;
21494;SDS011;10909;53.590;10.054;2023-03-31T07:22:28;7.25;;;3.55;;
21494;SDS011;10909;53.590;10.054;2023-03-31T07:24:55;9.20;;;4.15;;
21494;SDS011;10909;53.590;10.054;2023-03-31T07:27:20;5.53;;;3.58;;
21494;SDS011;10909;53.590;10.054;2023-03-31T07:29:46;6.97;;;3.80;;
21494;SDS011;10909;53.590;10.054;2023-03-31T07:32:12;7.10;;;3.85;;
21494;SDS011;10909;53.590;10.054;2023-03-31T07:34:37;7.65;;;3.75;;
21494;SDS011;10909;53.590;10.054;2023-03-31T07:37:05;6.20;;;3.53;;
21494;SDS011;10909;53.590;10.054;2023-03-31T07:39:31;7.32;;;4.00;;
21494;SDS011;10909;53.590;10.054;2023-03-31T07:41:56;5.63;;;3.47;;
21494;SDS011;10909;53.590;10.054;2023-03-31T07:44:22;5.25;;;3.30;;
21494;SDS011;10909;53.590;10.054;2023-03-31T07:46:48;6.13;;;3.50;;
21494;SDS011;10909;53.590;10.054;2023-03-31T07:49:13;7.28;;;3.63;;
21494;SDS011;10909;53.590;10.054;2023-03-31T07:51:40;5.35;;;3.40;;
21494;SDS011;10909;53.590;10.054;2023-03-31T07:54:06;5.07;;;3.70;;
21494;SDS011;10909;53.590;10.054;2023-03-31T07:56:32;6.85;;;3.50;;
21494;SDS011;10909;53.590;10.054;2023-03-31T07:58:58;5.72;;;3.10;;
21494;SDS011;10909;53.590;10.054;2023-03-31T08:01:23;6.43;;;3.20;;
21494;SDS011;10909;53.590;10.054;2023-03-31T08:03:50;5.22;;;3.20;;
21494;SDS011;10909;53.590;10.054;2023-03-31T08:06:18;5.57;;;3.13;;
21494;SDS011;10909;53.590;10.054;2023-03-31T08:08:47;5.85;;;3.28;;
21494;SDS011;10909;53.590;10.054;2023-03-31T08:11:13;4.35;;;2.95;;
21494;SDS011;10909;53.590;10.054;2023-03-31T08:13:40;5.95;;;2.80;;
21494;SDS011;10909;53.590;10.054;2023-03-31T08:16:06;4.43;;;2.63;;
21494;SDS011;10909;53.590;10.054;2023-03-31T08:18:31;4.53;;;2.90;;
21494;SDS011;10909;53.590;10.054;2023-03-31T08:20:57;5.60;;;3.00;;
21494;SDS011;10909;53.590;10.054;2023-03-31T08:23:23;6.47;;;2.83;;
21494;SDS011;10909;53.590;10.054;2023-03-31T08:25:48;4.72;;;2.90;;
21494;SDS011;10909;53.590;10.054;2023-03-31T08:28:14;4.07;;;2.50;;
21494;SDS011;10909;53.590;10.054;2023-03-31T08:30:39;4.30;;;2.67;;
21494;SDS011;10909;53.590;10.054;2023-03-31T08:33:05;9.25;;;3.22;;
21494;SDS011;10909;53.590;10.054;2023-03-31T08:35:32;6.30;;;2.85;;
21494;SDS011;10909;53.590;10.054;2023-03-31T08:38:01;5.38;;;2.90;;
21494;SDS011;10909;53.590;10.054;2023-03-31T08:40:27;3.88;;;2.40;;
21494;SDS011;10909;53.590;10.054;2023-03-31T08:45:23;4.50;;;2.83;;
21494;SDS011;10909;53.590;10.054;2023-03-31T08:48:00;5.40;;;2.70;;
21494;SDS011;10909;53.590;10.054;2023-03-31T08:50:30;4.93;;;2.65;;
21494;SDS011;10909;53.590;10.054;2023-03-31T08:53:05;4.50;;;2.63;;
21494;SDS011;10909;53.590;10.054;2023-03-31T08:55:48;5.20;;;2.20;;
21494;SDS011;10909;53.590;10.054;2023-03-31T09:00:53;2.10;;;1.58;;
21494;SDS011;10909;53.590;10.054;2023-03-31T09:03:30;3.35;;;1.90;;
21494;SDS011;10909;53.590;10.054;2023-03-31T09:06:13;3.15;;;2.00;;
21494;SDS011;10909;53.590;10.054;2023-03-31T09:08:43;2.85;;;2.00;;
21494;SDS011;10909;53.590;10.054;2023-03-31T09:13:45;1.75;;;1.33;;
21494;SDS011;10909;53.590;10.054;2023-03-31T09:19:17;2.38;;;1.58;;
21494;SDS011;10909;53.590;10.054;2023-03-31T09:22:01;3.13;;;1.60;;
21494;SDS011;10909;53.590;10.054;2023-03-31T09:24:31;3.17;;;1.60;;
21494;SDS011;10909;53.590;10.054;2023-03-31T09:27:04;5.18;;;2.10;;
21494;SDS011;10909;53.590;10.054;2023-03-31T09:35:14;3.90;;;1.77;;
21494;SDS011;10909;53.590;10.054;2023-03-31T09:37:49;2.58;;;1.90;;
21494;SDS011;10909;53.590;10.054;2023-03-31T09:40:17;2.78;;;2.00;;
21494;SDS011;10909;53.590;10.054;2023-03-31T09:42:45;2.70;;;1.63;;
21494;SDS011;10909;53.590;10.054;2023-03-31T09:45:18;3.78;;;2.00;;
21494;SDS011;10909;53.590;10.054;2023-03-31T09:47:50;6.45;;;1.98;;
21494;SDS011;10909;53.590;10.054;2023-03-31T09:50:19;2.55;;;1.60;;
21494;SDS011;10909;53.590;10.054;2023-03-31T09:52:47;4.50;;;1.70;;
21494;SDS011;10909;53.590;10.054;2023-03-31T09:57:53;3.72;;;1.95;;
21494;SDS011;10909;53.590;10.054;2023-03-31T10:00:20;2.00;;;1.15;;
21494;SDS011;10909;53.590;10.054;2023-03-31T10:02:56;2.90;;;1.58;;
21494;SDS011;10909;53.590;10.054;2023-03-31T10:05:32;4.40;;;2.00;;
21494;SDS011;10909;53.590;10.054;2023-03-31T10:10:42;3.17;;;1.70;;
21494;SDS011;10909;53.590;10.054;2023-03-31T10:13:09;2.22;;;1.95;;
21494;SDS011;10909;53.590;10.054;2023-03-31T10:15:40;2.05;;;1.70;;
21494;SDS011;10909;53.590;10.054;2023-03-31T10:18:10;2.92;;;2.00;;
21494;SDS011;10909;53.590;10.054;2023-03-31T10:20:38;2.13;;;1.73;;
21494;SDS011;10909;53.590;10.054;2023-03-31T10:23:14;5.30;;;2.50;;
21494;SDS011;10909;53.590;10.054;2023-03-31T10:25:43;2.13;;;1.92;;
21494;SDS011;10909;53.590;10.054;2023-03-31T10:28:11;2.75;;;2.03;;
21494;SDS011;10909;53.590;10.054;2023-03-31T10:30:46;2.50;;;1.98;;
21494;SDS011;10909;53.590;10.054;2023-03-31T10:33:18;3.35;;;1.80;;
21494;SDS011;10909;53.590;10.054;2023-03-31T10:36:06;2.65;;;1.85;;
21494;SDS011;10909;53.590;10.054;2023-03-31T10:38:37;3.03;;;2.10;;
21494;SDS011;10909;53.590;10.054;2023-03-31T10:41:07;3.97;;;2.50;;
21494;SDS011;10909;53.590;10.054;2023-03-31T10:43:46;3.53;;;2.13;;
21494;SDS011;10909;53.590;10.054;2023-03-31T10:46:15;3.63;;;2.10;;
21494;SDS011;10909;53.590;10.054;2023-03-31T10:48:41;3.20;;;1.80;;
21494;SDS011;10909;53.590;10.054;2023-03-31T10:51:14;2.83;;;2.00;;
21494;SDS011;10909;53.590;10.054;2023-03-31T10:53:52;3.35;;;1.60;;
21494;SDS011;10909;53.590;10.054;2023-03-31T10:59:38;5.10;;;1.98;;
21494;SDS011;10909;53.590;10.054;2023-03-31T11:02:44;4.13;;;1.90;;
21494;SDS011;10909;53.590;10.054;2023-03-31T11:05:22;2.10;;;1.55;;
21494;SDS011;10909;53.590;10.054;2023-03-31T11:13:47;2.90;;;1.70;;
21494;SDS011;10909;53.590;10.054;2023-03-31T11:16:26;1.77;;;1.35;;
21494;SDS011;10909;53.590;10.054;2023-03-31T11:22:43;3.25;;;1.60;;
21494;SDS011;10909;53.590;10.054;2023-03-31T11:26:10;2.15;;;1.70;;
21494;SDS011;10909;53.590;10.054;2023-03-31T11:31:09;2.80;;;1.50;;
21494;SDS011;10909;53.590;10.054;2023-03-31T11:42:35;2.13;;;1.40;;
21494;SDS011;10909;53.590;10.054;2023-03-31T11:45:16;2.20;;;1.33;;
21494;SDS011;10909;53.590;10.054;2023-03-31T11:47:48;2.25;;;1.50;;
21494;SDS011;10909;53.590;10.054;2023-03-31T11:50:18;1.92;;;1.30;;
21494;SDS011;10909;53.590;10.054;2023-03-31T11:52:57;2.20;;;1.42;;
21494;SDS011;10909;53.590;10.054;2023-03-31T11:55:28;2.50;;;1.50;;
21494;SDS011;10909;53.590;10.054;2023-03-31T12:03:21;3.05;;;1.23;;
21494;SDS011;10909;53.590;10.054;2023-03-31T12:06:00;1.52;;;1.10;;
21494;SDS011;10909;53.590;10.054;2023-03-31T12:08:40;3.05;;;1.30;;
21494;SDS011;10909;53.590;10.054;2023-03-31T12:11:16;2.35;;;1.30;;
21494;SDS011;10909;53.590;10.054;2023-03-31T12:14:00;2.25;;;1.30;;
21494;SDS011;10909;53.590;10.054;2023-03-31T12:16:50;1.95;;;1.30;;
21494;SDS011;10909;53.590;10.054;2023-03-31T12:19:29;5.40;;;1.30;;
21494;SDS011;10909;53.590;10.054;2023-03-31T12:22:04;1.20;;;1.00;;
21494;SDS011;10909;53.590;10.054;2023-03-31T12:24:41;1.98;;;1.33;;
21494;SDS011;10909;53.590;10.054;2023-03-31T12:32:27;3.45;;;1.95;;
21494;SDS011;10909;53.590;10.054;2023-03-31T12:37:45;2.08;;;1.63;;
21494;SDS011;10909;53.590;10.054;2023-03-31T12:40:18;5.80;;;1.75;;
21494;SDS011;10909;53.590;10.054;2023-03-31T12:45:49;2.15;;;1.50;;
21494;SDS011;10909;53.590;10.054;2023-03-31T12:59:33;2.05;;;1.30;;
21494;SDS011;10909;53.590;10.054;2023-03-31T13:04:37;2.17;;;1.63;;
21494;SDS011;10909;53.590;10.054;2023-03-31T13:07:04;3.45;;;1.60;;
21494;SDS011;10909;53.590;10.054;2023-03-31T13:09:57;1.88;;;1.60;;
21494;SDS011;10909;53.590;10.054;2023-03-31T13:12:38;1.73;;;1.55;;
21494;SDS011;10909;53.590;10.054;2023-03-31T13:15:11;1.88;;;1.50;;
21494;SDS011;10909;53.590;10.054;2023-03-31T13:17:38;4.75;;;1.90;;
21494;SDS011;10909;53.590;10.054;2023-03-31T13:23:04;3.17;;;1.80;;
21494;SDS011;10909;53.590;10.054;2023-03-31T13:25:50;3.35;;;2.05;;
21494;SDS011;10909;53.590;10.054;2023-03-31T13:30:59;2.75;;;1.75;;
21494;SDS011;10909;53.590;10.054;2023-03-31T13:33:32;1.88;;;1.60;;
21494;SDS011;10909;53.590;10.054;2023-03-31T13:36:18;4.03;;;1.70;;
21494;SDS011;10909;53.590;10.054;2023-03-31T13:39:18;3.28;;;1.70;;
21494;SDS011;10909;53.590;10.054;2023-03-31T13:50:43;3.13;;;1.95;;
21494;SDS011;10909;53.590;10.054;2023-03-31T13:58:47;2.83;;;1.80;;
21494;SDS011;10909;53.590;10.054;2023-03-31T14:07:44;2.55;;;1.60;;
21494;SDS011;10909;53.590;10.054;2023-03-31T14:10:27;1.70;;;1.50;;
21494;SDS011;10909;53.590;10.054;2023-03-31T14:13:09;2.75;;;1.45;;
21494;SDS011;10909;53.590;10.054;2023-03-31T14:18:20;2.75;;;1.70;;
21494;SDS011;10909;53.590;10.054;2023-03-31T14:26:11;2.92;;;1.65;;
21494;SDS011;10909;53.590;10.054;2023-03-31T14:28:49;2.95;;;1.80;;
21494;SDS011;10909;53.590;10.054;2023-03-31T14:31:52;3.03;;;1.45;;
21494;SDS011;10909;53.590;10.054;2023-03-31T14:37:22;2.53;;;1.73;;
21494;SDS011;10909;53.590;10.054;2023-03-31T14:39:49;2.00;;;1.50;;
21494;SDS011;10909;53.590;10.054;2023-03-31T14:42:18;2.78;;;1.52;;
21494;SDS011;10909;53.590;10.054;2023-03-31T14:44:47;1.88;;;1.60;;
21494;SDS011;10909;53.590;10.054;2023-03-31T14:47:14;1.98;;;1.50;;
21494;SDS011;10909;53.590;10.054;2023-03-31T14:49:47;1.67;;;1.58;;
21494;SDS011;10909;53.590;10.054;2023-03-31T14:52:27;1.58;;;1.48;;
21494;SDS011;10909;53.590;10.054;2023-03-31T14:54:56;1.85;;;1.50;;
21494;SDS011;10909;53.590;10.054;2023-03-31T14:57:28;2.05;;;1.50;;
21494;SDS011;10909;53.590;10.054;2023-03-31T14:59:57;2.72;;;1.60;;
21494;SDS011;10909;53.590;10.054;2023-03-31T15:02:34;1.65;;;1.50;;
21494;SDS011;10909;53.590;10.054;2023-03-31T15:05:03;2.00;;;1.60;;
21494;SDS011;10909;53.590;10.054;2023-03-31T15:07:31;2.38;;;1.40;;
21494;SDS011;10909;53.590;10.054;2023-03-31T15:09:58;2.97;;;1.40;;
21494;SDS011;10909;53.590;10.054;2023-03-31T15:12:24;1.52;;;1.42;;
21494;SDS011;10909;53.590;10.054;2023-03-31T15:14:53;1.92;;;1.60;;
21494;SDS011;10909;53.590;10.054;2023-03-31T15:17:28;1.60;;;1.40;;
21494;SDS011;10909;53.590;10.054;2023-03-31T15:19:58;1.90;;;1.20;;
21494;SDS011;10909;53.590;10.054;2023-03-31T15:22:25;1.60;;;1.17;;
21494;SDS011;10909;53.590;10.054;2023-03-31T15:24:53;1.90;;;1.20;;
21494;SDS011;10909;53.590;10.054;2023-03-31T15:29:57;1.50;;;1.10;;
21494;SDS011;10909;53.590;10.054;2023-03-31T15:32:30;1.80;;;1.40;;
21494;SDS011;10909;53.590;10.054;2023-03-31T15:34:59;1.52;;;1.05;;
21494;SDS011;10909;53.590;10.054;2023-03-31T15:37:50;1.48;;;1.10;;
21494;SDS011;10909;53.590;10.054;2023-03-31T15:40:20;1.38;;;1.10;;
21494;SDS011;10909;53.590;10.054;2023-03-31T15:42:49;1.90;;;1.30;;
21494;SDS011;10909;53.590;10.054;2023-03-31T15:47:49;1.65;;;1.27;;
21494;SDS011;10909;53.590;10.054;2023-03-31T15:50:16;1.48;;;1.00;;
21494;SDS011;10909;53.590;10.054;2023-03-31T15:52:47;1.63;;;0.90;;
21494;SDS011;10909;53.590;10.054;2023-03-31T15:55:30;1.58;;;0.98;;
21494;SDS011;10909;53.590;10.054;2023-03-31T15:58:05;1.65;;;1.10;;
21494;SDS011;10909;53.590;10.054;2023-03-31T16:03:09;1.00;;;0.90;;
21494;SDS011;10909;53.590;10.054;2023-03-31T16:06:02;1.10;;;1.00;;
21494;SDS011;10909;53.590;10.054;2023-03-31T16:08:37;1.77;;;0.95;;
21494;SDS011;10909;53.590;10.054;2023-03-31T16:11:12;1.27;;;0.88;;
21494;SDS011;10909;53.590;10.054;2023-03-31T16:13:44;2.33;;;1.48;;
21494;SDS011;10909;53.590;10.054;2023-03-31T16:16:15;1.70;;;1.33;;
21494;SDS011;10909;53.590;10.054;2023-03-31T16:18:46;2.42;;;1.30;;
21494;SDS011;10909;53.590;10.054;2023-03-31T16:21:18;2.28;;;1.17;;
21494;SDS011;10909;53.590;10.054;2023-03-31T16:23:54;1.77;;;1.10;;
21494;SDS011;10909;53.590;10.054;2023-03-31T16:26:22;1.38;;;1.20;;
21494;SDS011;10909;53.590;10.054;2023-03-31T16:28:50;1.85;;;1.33;;
21494;SDS011;10909;53.590;10.054;2023-03-31T16:31:37;2.13;;;1.33;;
21494;SDS011;10909;53.590;10.054;2023-03-31T16:34:08;1.15;;;1.05;;
21494;SDS011;10909;53.590;10.054;2023-03-31T16:36:35;1.55;;;1.20;;
21494;SDS011;10909;53.590;10.054;2023-03-31T16:39:01;1.33;;;1.23;;
21494;SDS011;10909;53.590;10.054;2023-03-31T16:41:32;1.70;;;1.48;;
21494;SDS011;10909;53.590;10.054;2023-03-31T16:43:59;3.35;;;2.22;;
21494;SDS011;10909;53.590;10.054;2023-03-31T16:46:26;2.15;;;1.70;;
21494;SDS011;10909;53.590;10.054;2023-03-31T16:48:52;2.78;;;2.35;;
21494;SDS011;10909;53.590;10.054;2023-03-31T16:51:18;3.50;;;1.80;;
21494;SDS011;10909;53.590;10.054;2023-03-31T16:53:44;1.85;;;1.70;;
21494;SDS011;10909;53.590;10.054;2023-03-31T16:56:11;2.15;;;1.95;;
21494;SDS011;10909;53.590;10.054;2023-03-31T16:58:38;2.55;;;1.83;;
21494;SDS011;10909;53.590;10.054;2023-03-31T17:01:05;1.88;;;1.70;;
21494;SDS011;10909;53.590;10.054;2023-03-31T17:03:32;2.17;;;1.98;;
21494;SDS011;10909;53.590;10.054;2023-03-31T17:06:03;1.92;;;1.73;;
21494;SDS011;10909;53.590;10.054;2023-03-31T17:08:30;1.63;;;1.52;;
21494;SDS011;10909;53.590;10.054;2023-03-31T17:13:27;2.25;;;1.67;;
21494;SDS011;10909;53.590;10.054;2023-03-31T17:15:53;2.60;;;1.60;;
21494;SDS011;10909;53.590;10.054;2023-03-31T17:18:19;2.75;;;1.95;;
21494;SDS011;10909;53.590;10.054;2023-03-31T17:20:45;2.15;;;1.83;;
21494;SDS011;10909;53.590;10.054;2023-03-31T17:23:11;1.65;;;1.55;;
21494;SDS011;10909;53.590;10.054;2023-03-31T17:25:38;2.53;;;1.70;;
21494;SDS011;10909;53.590;10.054;2023-03-31T17:28:03;1.60;;;1.50;;
21494;SDS011;10909;53.590;10.054;2023-03-31T17:30:30;1.60;;;1.50;;
21494;SDS011;10909;53.590;10.054;2023-03-31T17:32:56;3.30;;;1.40;;